Time;durP1;ratioP1;P1;durP2;ratioP2;P2;SDS_P1;SDS_P2;PMS_P1;PMS_P2;Temp;Humidity;BMP_temperature;BMP_pressure;BME280_temperature;BME280_humidity;BME280_pressure;Samples;Min_cycle;Max_cycle;Signal;HPM_P1;HPM_P2
2022/09/24 00:00:17;;;;;;;32.22;18.33;;;13.60;99.90;;;;;;4246878;27;20149;-84
2022/09/24 00:02:18;;;;;;;37.55;19.92;;;13.60;99.90;;;;;;4234870;27;20047;-86
2022/09/24 00:04:19;;;;;;;31.73;18.58;;;13.60;99.90;;;;;;4231694;28;20048;-85
2022/09/24 00:06:21;;;;;;;35.35;19.17;;;13.60;99.90;;;;;;4231834;28;20119;-85
2022/09/24 00:08:21;;;;;;;32.35;19.13;;;13.60;99.90;;;;;;4213525;28;20109;-85
2022/09/24 00:10:22;;;;;;;35.58;18.65;;;13.60;99.90;;;;;;4231394;28;20083;-86
2022/09/24 00:12:23;;;;;;;32.80;17.98;;;13.70;99.90;;;;;;4231599;28;20043;-86
2022/09/24 00:14:24;;;;;;;31.33;18.90;;;13.60;99.90;;;;;;4213994;28;20047;-84
2022/09/24 00:16:32;;;;;;;35.72;19.25;;;13.70;99.90;;;;;;4232033;28;20092;-85
2022/09/24 00:18:33;;;;;;;35.28;19.35;;;13.70;99.90;;;;;;4231618;28;20079;-85
2022/09/24 00:20:34;;;;;;;34.42;18.00;;;13.60;99.90;;;;;;4231843;28;20411;-85
2022/09/24 00:22:35;;;;;;;39.88;21.02;;;13.30;99.90;;;;;;4231726;28;20083;-85
2022/09/24 00:26:58;;;;;;;39.42;20.55;;;13.60;99.90;;;;;;4213267;28;20048;-85
2022/09/24 00:28:59;;;;;;;42.25;21.33;;;14.10;99.90;;;;;;4213791;28;20178;-85
2022/09/24 00:31:05;;;;;;;34.72;20.45;;;13.70;99.90;;;;;;4213790;28;20083;-86
2022/09/24 00:33:07;;;;;;;40.15;21.13;;;13.60;99.90;;;;;;4231603;28;20083;-85
2022/09/24 00:35:08;;;;;;;40.17;22.55;;;13.60;99.90;;;;;;4213633;28;20098;-85
2022/09/24 00:37:09;;;;;;;36.90;20.88;;;13.70;99.90;;;;;;4213570;28;20082;-85
2022/09/24 00:39:10;;;;;;;40.80;21.58;;;13.60;99.90;;;;;;4213488;28;20201;-85
2022/09/24 00:41:11;;;;;;;38.78;21.45;;;13.70;99.90;;;;;;4231389;28;20040;-86
2022/09/24 00:43:27;;;;;;;41.95;22.58;;;13.70;99.90;;;;;;4231515;28;20041;-85
2022/09/24 00:45:29;;;;;;;42.20;23.30;;;13.70;99.90;;;;;;4231708;28;20466;-86
2022/09/24 00:47:39;;;;;;;42.60;23.85;;;13.60;99.90;;;;;;4231580;28;20419;-86
2022/09/24 00:49:40;;;;;;;;;;;13.60;99.90;;;;;;4231288;28;20491;-85
2022/09/24 00:51:44;;;;;;;35.55;20.45;;;13.70;99.90;;;;;;4231351;28;19926;-86
2022/09/24 00:53:47;;;;;;;41.72;21.90;;;13.60;99.90;;;;;;4230022;28;20044;-85
2022/09/24 00:55:53;;;;;;;45.88;23.38;;;13.60;99.90;;;;;;4231425;28;20051;-84
2022/09/24 00:58:02;;;;;;;42.22;23.63;;;13.60;99.90;;;;;;4231120;28;20069;-85
2022/09/24 01:00:04;;;;;;;43.95;24.30;;;13.60;99.90;;;;;;4231167;28;20044;-85
2022/09/24 01:02:05;;;;;;;44.50;23.60;;;13.60;99.90;;;;;;4231339;28;20475;-85
2022/09/24 01:04:06;;;;;;;42.53;24.63;;;13.60;99.90;;;;;;4212925;28;20044;-85
2022/09/24 01:06:08;;;;;;;50.25;25.55;;;13.60;99.90;;;;;;4231413;28;20122;-84
2022/09/24 01:08:15;;;;;;;44.53;24.73;;;13.60;99.90;;;;;;4213018;28;20052;-84
2022/09/24 01:10:46;;;;;;;43.47;25.15;;;13.60;99.90;;;;;;4212867;28;20110;-85
2022/09/24 01:12:47;;;;;;;48.53;25.15;;;13.60;99.90;;;;;;4211798;28;20624;-85
2022/09/24 01:15:14;;;;;;;46.88;24.27;;;13.60;99.90;;;;;;4231298;28;20407;-85
2022/09/24 01:17:39;;;;;;;44.35;23.92;;;13.60;99.90;;;;;;4230846;28;20043;-85
2022/09/24 01:20:11;;;;;;;47.20;25.00;;;13.60;99.90;;;;;;4231099;28;20063;-85
2022/09/24 01:22:24;;;;;;;48.78;26.15;;;13.60;99.90;;;;;;4179108;28;20048;-85
2022/09/24 01:24:27;;;;;;;50.00;26.45;;;13.60;99.90;;;;;;4212726;28;20052;-85
2022/09/24 01:26:50;;;;;;;50.10;25.38;;;13.60;99.90;;;;;;4231085;28;20044;-85
2022/09/24 01:29:21;;;;;;;58.75;26.17;;;13.70;99.90;;;;;;4230965;28;20544;-85
2022/09/24 01:31:29;;;;;;;49.45;26.48;;;13.70;99.90;;;;;;4230064;28;20043;-85
2022/09/24 01:33:33;;;;;;;52.10;28.20;;;13.60;99.90;;;;;;4230658;28;20052;-85
2022/09/24 01:35:38;;;;;;;50.72;26.17;;;13.60;99.90;;;;;;4230878;28;20387;-85
2022/09/24 01:37:43;;;;;;;47.45;26.02;;;13.60;99.90;;;;;;4230829;28;20078;-85
2022/09/24 01:39:46;;;;;;;49.95;27.08;;;13.60;99.90;;;;;;4230742;28;20040;-85
2022/09/24 01:41:48;;;;;;;48.28;26.98;;;13.70;99.90;;;;;;4230840;28;20096;-85
2022/09/24 01:43:49;;;;;;;48.83;26.23;;;13.70;99.90;;;;;;4231727;28;20058;-85
2022/09/24 01:45:51;;;;;;;46.45;26.08;;;13.60;99.90;;;;;;4230673;28;20130;-85
2022/09/24 01:47:51;;;;;;;50.90;27.73;;;13.70;99.90;;;;;;4232002;28;20496;-87
2022/09/24 01:49:52;;;;;;;52.00;27.27;;;13.60;99.90;;;;;;4240369;28;20058;-86
2022/09/24 01:51:57;;;;;;;53.40;29.00;;;13.70;99.90;;;;;;4222785;28;20047;-86
2022/09/24 01:54:10;;;;;;;49.58;27.65;;;13.70;99.90;;;;;;4218272;28;20036;-86
2022/09/24 01:56:27;;;;;;;49.47;27.25;;;13.70;99.90;;;;;;4233294;28;20050;-85
2022/09/24 01:58:54;;;;;;;48.47;27.08;;;13.70;99.90;;;;;;4214368;28;20055;-86
2022/09/24 02:01:08;;;;;;;48.55;25.80;;;13.70;99.90;;;;;;4230693;28;20043;-85
2022/09/24 02:03:21;;;;;;;50.05;27.55;;;13.70;99.90;;;;;;4230483;28;20131;-86
2022/09/24 02:05:40;;;;;;;54.75;27.48;;;13.70;99.90;;;;;;4212653;28;20515;-86
2022/09/24 02:08:21;;;;;;;49.20;25.77;;;13.70;99.90;;;;;;4230478;28;20150;-86
2022/09/24 02:10:21;;;;;;;51.97;27.17;;;13.70;99.90;;;;;;4190179;28;20159;-86
2022/09/24 02:12:40;;;;;;;57.85;29.45;;;13.70;99.90;;;;;;4230497;28;20504;-86
2022/09/24 02:14:48;;;;;;;54.03;29.50;;;13.70;99.90;;;;;;4230614;28;20557;-86
2022/09/24 02:16:50;;;;;;;57.97;29.88;;;13.70;99.90;;;;;;4212256;28;20052;-86
2022/09/24 02:18:55;;;;;;;53.72;30.15;;;13.80;99.90;;;;;;4212453;28;20048;-86
2022/09/24 02:20:58;;;;;;;59.35;31.30;;;13.70;99.90;;;;;;4212016;28;20127;-86
2022/09/24 02:22:59;;;;;;;56.00;30.13;;;13.70;99.90;;;;;;4231352;28;20512;-86
2022/09/24 02:25:04;;;;;;;59.75;30.90;;;13.70;99.90;;;;;;4234006;28;20047;-86
2022/09/24 02:27:04;;;;;;;60.08;30.48;;;13.70;99.90;;;;;;4215615;28;20082;-86
2022/09/24 02:29:06;;;;;;;55.63;30.52;;;13.70;99.90;;;;;;4233372;28;20047;-86
2022/09/24 02:31:27;;;;;;;58.70;31.00;;;13.70;99.90;;;;;;4215468;28;20048;-86
2022/09/24 02:35:51;;;;;;;55.40;27.98;;;13.70;99.90;;;;;;4233927;28;20043;-86
2022/09/24 02:37:51;;;;;;;57.05;27.92;;;13.70;99.90;;;;;;4233401;28;20043;-86
2022/09/24 02:39:52;;;;;;;51.92;28.08;;;13.70;99.90;;;;;;4233790;28;20040;-86
2022/09/24 02:41:55;;;;;;;52.38;30.40;;;13.70;99.90;;;;;;4244484;27;20039;-86
2022/09/24 02:43:57;;;;;;;53.10;27.90;;;13.70;99.90;;;;;;4232612;28;20075;-86
2022/09/24 02:45:57;;;;;;;47.60;26.38;;;13.70;99.90;;;;;;4250486;27;20088;-86
2022/09/24 02:47:58;;;;;;;57.65;28.95;;;13.70;99.90;;;;;;4250072;27;20403;-86
2022/09/24 02:49:59;;;;;;;58.10;30.98;;;13.70;99.90;;;;;;4250350;27;20053;-86
2022/09/24 02:52:00;;;;;;;51.13;27.80;;;13.70;99.90;;;;;;4232003;28;20044;-86
2022/09/24 02:54:01;;;;;;;55.75;27.95;;;13.70;99.90;;;;;;4250359;27;20043;-86
2022/09/24 02:56:02;;;;;;;52.33;28.65;;;13.70;99.90;;;;;;4250573;27;20118;-86
2022/09/24 02:58:03;;;;;;;51.05;27.17;;;13.80;99.90;;;;;;4250116;27;20551;-86
2022/09/24 03:00:05;;;;;;;48.38;28.42;;;13.70;99.90;;;;;;4232248;28;20071;-86
2022/09/24 03:02:06;;;;;;;50.08;27.98;;;13.70;99.90;;;;;;4250723;27;20055;-85
2022/09/24 03:04:06;;;;;;;49.63;28.00;;;13.80;99.90;;;;;;4231822;28;20050;-86
2022/09/24 03:06:07;;;;;;;50.40;29.60;;;13.70;99.90;;;;;;4250360;27;20479;-86
2022/09/24 03:08:08;;;;;;;51.22;27.73;;;13.80;99.90;;;;;;4250364;27;20043;-85
2022/09/24 03:10:10;;;;;;;53.65;28.73;;;13.80;99.90;;;;;;4249873;27;20046;-86
2022/09/24 03:12:11;;;;;;;53.88;29.58;;;13.70;99.90;;;;;;4231604;28;20044;-85
2022/09/24 03:14:12;;;;;;;53.08;28.08;;;13.80;99.90;;;;;;4232011;28;20039;-86
2022/09/24 03:16:14;;;;;;;54.78;28.65;;;13.70;99.90;;;;;;4250221;27;20539;-86
2022/09/24 03:18:14;;;;;;;55.53;29.23;;;13.70;99.90;;;;;;4231902;28;20051;-86
2022/09/24 03:20:15;;;;;;;52.95;27.40;;;13.70;99.90;;;;;;4250227;27;20039;-86
2022/09/24 03:22:16;;;;;;;51.03;28.23;;;13.70;99.90;;;;;;4249934;27;20122;-86
2022/09/24 03:24:17;;;;;;;48.63;26.83;;;13.80;99.90;;;;;;4250055;27;20109;-86
2022/09/24 03:26:17;;;;;;;37.97;23.98;;;13.80;99.90;;;;;;4250128;27;20505;-86
2022/09/24 03:28:18;;;;;;;51.65;26.35;;;13.70;99.90;;;;;;4250024;27;20045;-86
2022/09/24 03:32:38;;;;;;;;;;;13.80;99.90;;;;;;4250291;27;20146;-86
2022/09/24 03:34:38;;;;;;;49.63;23.20;;;13.80;99.90;;;;;;4249044;27;19931;-86
2022/09/24 03:36:39;;;;;;;45.72;23.42;;;13.80;99.90;;;;;;4231357;28;20105;-86
2022/09/24 03:38:41;;;;;;;41.35;22.90;;;13.80;99.90;;;;;;4249308;27;20047;-86
2022/09/24 03:40:42;;;;;;;42.13;22.58;;;13.80;99.90;;;;;;4249613;27;20043;-86
2022/09/24 03:42:43;;;;;;;39.97;21.45;;;13.80;99.90;;;;;;4249697;27;20070;-86
2022/09/24 03:44:43;;;;;;;41.75;21.30;;;13.80;99.90;;;;;;4231223;28;20044;-86
2022/09/24 03:46:44;;;;;;;33.80;19.70;;;13.80;99.90;;;;;;4231164;28;20048;-86
2022/09/24 03:48:46;;;;;;;35.85;18.35;;;13.80;99.90;;;;;;4231115;28;20116;-86
2022/09/24 03:50:47;;;;;;;37.80;20.08;;;13.80;99.90;;;;;;4249209;27;20051;-86
2022/09/24 03:52:48;;;;;;;29.20;17.15;;;13.90;99.90;;;;;;4249643;27;20049;-86
2022/09/24 03:54:49;;;;;;;36.05;17.05;;;13.90;99.90;;;;;;4230990;28;20047;-86
2022/09/24 03:56:50;;;;;;;36.85;17.50;;;13.90;99.90;;;;;;4242916;27;20054;-86
2022/09/24 03:58:50;;;;;;;32.88;16.65;;;13.90;99.90;;;;;;4249328;27;20050;-87
2022/09/24 04:00:53;;;;;;;28.95;14.98;;;13.90;99.90;;;;;;4230736;28;20036;-86
2022/09/24 04:02:53;;;;;;;27.00;15.20;;;13.90;99.90;;;;;;4237355;27;20032;-86
2022/09/24 04:04:54;;;;;;;26.20;14.07;;;13.90;99.90;;;;;;4232732;28;20096;-86
2022/09/24 04:06:55;;;;;;;29.40;14.27;;;13.90;99.90;;;;;;4214102;28;20079;-86
2022/09/24 04:08:56;;;;;;;28.98;13.00;;;13.90;99.90;;;;;;4231967;28;20602;-86
2022/09/24 04:10:57;;;;;;;23.05;11.57;;;13.90;99.90;;;;;;4232119;28;20448;-86
2022/09/24 04:12:58;;;;;;;20.13;10.80;;;13.90;99.90;;;;;;4232106;28;20074;-86
2022/09/24 04:15:01;;;;;;;19.35;8.73;;;13.90;99.90;;;;;;4232068;28;20043;-86
2022/09/24 04:17:02;;;;;;;15.07;7.45;;;13.90;99.90;;;;;;4231769;28;20044;-86
2022/09/24 04:19:03;;;;;;;14.68;5.05;;;13.90;99.90;;;;;;4213934;28;20043;-86
2022/09/24 04:21:04;;;;;;;9.70;2.70;;;13.90;99.90;;;;;;4232126;28;20051;-86
2022/09/24 04:23:05;;;;;;;5.53;1.95;;;13.90;99.90;;;;;;4232225;28;20535;-86
2022/09/24 04:25:06;;;;;;;8.68;1.70;;;13.90;99.90;;;;;;4232142;28;20085;-86
2022/09/24 04:27:07;;;;;;;9.20;1.63;;;13.90;99.90;;;;;;4232150;28;20043;-86
2022/09/24 04:29:08;;;;;;;11.25;1.10;;;13.90;99.90;;;;;;4232099;28;20093;-86
2022/09/24 04:31:09;;;;;;;4.68;1.25;;;13.90;99.90;;;;;;4231560;28;20122;-86
2022/09/24 04:33:10;;;;;;;6.95;1.27;;;13.90;99.90;;;;;;4231662;28;20032;-86
2022/09/24 04:35:10;;;;;;;6.25;1.83;;;13.80;99.90;;;;;;4213749;28;20059;-86
2022/09/24 04:37:11;;;;;;;5.97;1.10;;;13.80;99.90;;;;;;4231676;28;20054;-86
2022/09/24 04:39:12;;;;;;;8.45;1.90;;;13.80;99.90;;;;;;4231487;28;20433;-86
2022/09/24 04:41:16;;;;;;;12.27;1.15;;;13.80;99.90;;;;;;4213494;28;20093;-86
2022/09/24 04:43:17;;;;;;;14.10;1.50;;;13.80;99.90;;;;;;4213820;28;20047;-86
2022/09/24 04:45:20;;;;;;;8.70;1.88;;;13.80;99.90;;;;;;4231808;28;20036;-86
2022/09/24 04:47:24;;;;;;;13.80;1.33;;;13.70;99.90;;;;;;4231589;28;20052;-87
2022/09/24 04:49:26;;;;;;;13.15;1.45;;;13.70;99.90;;;;;;4213462;28;20087;-86
2022/09/24 04:51:27;;;;;;;6.80;0.82;;;13.70;99.90;;;;;;4231036;28;20067;-86
2022/09/24 04:53:28;;;;;;;10.48;1.92;;;13.70;99.90;;;;;;4231341;28;20403;-86
2022/09/24 04:55:30;;;;;;;10.20;1.45;;;13.70;99.90;;;;;;4231431;28;20036;-86
2022/09/24 04:57:33;;;;;;;11.35;1.80;;;13.70;99.90;;;;;;4231292;28;20151;-86
2022/09/24 04:59:34;;;;;;;7.82;1.35;;;13.70;99.90;;;;;;4234846;28;20048;-85
2022/09/24 05:01:35;;;;;;;10.77;1.20;;;13.70;99.90;;;;;;4231524;28;20506;-86
2022/09/24 05:03:36;;;;;;;10.35;0.93;;;13.70;99.90;;;;;;4230575;28;20065;-86
2022/09/24 05:05:37;;;;;;;10.23;1.48;;;13.70;99.90;;;;;;4231180;28;20042;-86
2022/09/24 05:07:38;;;;;;;3.75;1.02;;;13.70;99.90;;;;;;4231473;28;20054;-86
2022/09/24 05:09:39;;;;;;;6.25;1.08;;;13.60;99.90;;;;;;4231437;28;20522;-86
2022/09/24 05:11:40;;;;;;;8.90;2.00;;;13.60;99.90;;;;;;4230788;28;20115;-86
2022/09/24 05:13:40;;;;;;;9.75;2.03;;;13.60;99.90;;;;;;4213320;28;20048;-87
2022/09/24 05:15:42;;;;;;;8.75;1.25;;;13.60;99.90;;;;;;4213317;28;20084;-87
2022/09/24 05:17:43;;;;;;;5.97;1.42;;;13.60;99.90;;;;;;4231330;28;20438;-86
2022/09/24 05:19:44;;;;;;;8.80;1.83;;;13.60;99.90;;;;;;4212695;28;20036;-86
2022/09/24 05:21:45;;;;;;;9.05;1.80;;;13.60;99.90;;;;;;4230679;28;20042;-86
2022/09/24 05:23:46;;;;;;;4.65;0.85;;;13.60;99.90;;;;;;4230598;28;20511;-86
2022/09/24 05:28:05;;;;;;;;;;;13.60;99.90;;;;;;4230635;28;20074;-86
2022/09/24 05:30:06;;;;;;;3.90;0.80;;;13.60;99.90;;;;;;4230283;28;19916;-86
2022/09/24 05:32:10;;;;;;;4.63;1.05;;;13.60;99.90;;;;;;4211847;28;20040;-86
2022/09/24 05:34:13;;;;;;;4.85;1.42;;;13.50;99.90;;;;;;4212151;28;20431;-86
2022/09/24 05:36:14;;;;;;;9.27;1.02;;;13.60;99.90;;;;;;4229620;28;20040;-86
2022/09/24 05:38:15;;;;;;;8.63;1.08;;;13.60;99.90;;;;;;4230114;28;20039;-86
2022/09/24 05:42:35;;;;;;;10.80;0.90;;;13.60;99.90;;;;;;4229996;28;20052;-86
2022/09/24 05:44:37;;;;;;;6.43;1.02;;;13.60;99.90;;;;;;4230148;28;20499;-86
2022/09/24 05:46:37;;;;;;;10.13;1.90;;;13.60;99.90;;;;;;4230219;28;20040;-86
2022/09/24 05:48:39;;;;;;;9.77;1.10;;;13.60;99.90;;;;;;4212062;28;20518;-86
2022/09/24 05:50:41;;;;;;;8.52;1.30;;;13.60;99.90;;;;;;4230010;28;20043;-86
2022/09/24 05:52:42;;;;;;;17.15;1.50;;;13.60;99.90;;;;;;4230077;28;20075;-86
2022/09/24 05:54:43;;;;;;;7.32;1.60;;;13.60;99.90;;;;;;4229280;28;20039;-85
2022/09/24 05:56:44;;;;;;;10.65;1.67;;;13.60;99.90;;;;;;4230062;28;20036;-86
2022/09/24 05:58:48;;;;;;;11.98;1.60;;;13.60;99.90;;;;;;4211551;28;20050;-85
2022/09/24 06:00:50;;;;;;;7.78;1.55;;;13.60;99.90;;;;;;4211905;28;20084;-86
2022/09/24 06:02:50;;;;;;;6.50;0.98;;;13.60;99.90;;;;;;4230084;28;20088;-86
2022/09/24 06:04:51;;;;;;;10.38;1.00;;;13.60;99.90;;;;;;4229944;28;20504;-86
2022/09/24 06:06:52;;;;;;;9.68;1.58;;;13.70;99.90;;;;;;4229502;28;20089;-86
2022/09/24 06:08:54;;;;;;;7.88;1.40;;;13.70;99.90;;;;;;4230004;28;20399;-86
2022/09/24 06:11:02;;;;;;;8.40;1.20;;;13.70;99.90;;;;;;4229969;28;20031;-87
2022/09/24 06:13:03;;;;;;;17.23;2.08;;;13.70;99.90;;;;;;4230048;28;20047;-86
2022/09/24 06:15:04;;;;;;;12.63;1.42;;;14.00;99.90;;;;;;4229962;28;20213;-86
2022/09/24 06:17:04;;;;;;;7.10;1.85;;;13.70;99.90;;;;;;4229741;28;20047;-86
2022/09/24 06:19:05;;;;;;;14.80;1.95;;;13.70;99.90;;;;;;4229692;28;20070;-86
2022/09/24 06:21:09;;;;;;;9.07;1.30;;;13.70;99.90;;;;;;4238423;28;20058;-86
2022/09/24 06:23:10;;;;;;;12.52;2.30;;;13.70;99.90;;;;;;4232619;28;20487;-86
2022/09/24 06:25:11;;;;;;;9.10;1.38;;;13.70;99.90;;;;;;4229638;28;20079;-84
2022/09/24 06:27:11;;;;;;;12.43;1.58;;;13.80;99.90;;;;;;4243715;28;20447;-86
2022/09/24 06:29:13;;;;;;;7.28;1.13;;;13.50;99.90;;;;;;4228465;28;20079;-86
2022/09/24 06:31:14;;;;;;;9.10;1.83;;;13.80;99.90;;;;;;4246562;28;20043;-86
2022/09/24 06:33:15;;;;;;;5.15;1.27;;;13.80;99.90;;;;;;4246423;28;20558;-86
2022/09/24 06:35:16;;;;;;;7.50;0.88;;;13.80;99.90;;;;;;4246780;28;20047;-86
2022/09/24 06:37:16;;;;;;;12.77;1.30;;;13.80;99.90;;;;;;4246480;28;20046;-86
2022/09/24 06:39:17;;;;;;;9.48;1.08;;;13.80;99.90;;;;;;4228160;28;20062;-86
2022/09/24 06:41:18;;;;;;;8.35;1.42;;;13.80;99.90;;;;;;4246207;28;20491;-85
2022/09/24 06:43:19;;;;;;;4.68;1.35;;;13.80;99.90;;;;;;4239174;28;20487;-86
2022/09/24 06:45:20;;;;;;;13.77;2.35;;;13.80;99.90;;;;;;4237387;28;20071;-86
2022/09/24 06:47:22;;;;;;;7.10;1.17;;;13.40;99.90;;;;;;4210545;28;20036;-86
2022/09/24 06:49:23;;;;;;;10.40;1.38;;;13.80;99.90;;;;;;4240747;28;20035;-86
2022/09/24 06:51:24;;;;;;;8.55;1.52;;;13.80;99.90;;;;;;4194743;28;20135;-86
2022/09/24 06:53:25;;;;;;;9.88;1.88;;;13.90;99.90;;;;;;4233430;28;20035;-86
2022/09/24 06:55:26;;;;;;;11.88;1.42;;;13.90;99.90;;;;;;4246612;27;20475;-86
2022/09/24 06:57:26;;;;;;;9.55;1.38;;;13.90;99.90;;;;;;4246338;28;20043;-86
2022/09/24 06:59:27;;;;;;;8.82;1.40;;;13.90;99.90;;;;;;4228297;28;20575;-86
2022/09/24 07:01:29;;;;;;;8.02;2.50;;;13.90;99.90;;;;;;4246691;28;20035;-86
2022/09/24 07:03:31;;;;;;;10.48;2.20;;;13.90;99.90;;;;;;4228323;28;20088;-87
2022/09/24 07:05:33;;;;;;;12.95;1.40;;;13.90;99.90;;;;;;4207671;28;20441;-86
2022/09/24 07:07:34;;;;;;;15.65;1.52;;;13.90;99.90;;;;;;4210968;28;20052;-86
2022/09/24 07:09:36;;;;;;;5.35;1.23;;;14.00;99.90;;;;;;4229472;28;20040;-86
2022/09/24 07:11:37;;;;;;;12.70;3.00;;;13.90;99.90;;;;;;4232129;28;20046;-86
2022/09/24 07:13:38;;;;;;;9.50;1.30;;;14.00;99.90;;;;;;4214728;28;20419;-86
2022/09/24 07:15:40;;;;;;;8.57;1.33;;;14.00;99.90;;;;;;4232532;28;20035;-86
2022/09/24 07:17:40;;;;;;;11.63;1.20;;;14.00;99.90;;;;;;4232093;28;20048;-86
2022/09/24 07:19:41;;;;;;;15.27;1.23;;;14.10;99.90;;;;;;4232548;28;20384;-87
2022/09/24 07:21:42;;;;;;;8.05;1.58;;;13.60;99.90;;;;;;4232187;28;20042;-86
2022/09/24 07:23:43;;;;;;;6.75;1.40;;;14.10;99.90;;;;;;4236915;27;20039;-86
2022/09/24 07:25:44;;;;;;;14.20;1.48;;;14.10;99.90;;;;;;4240005;27;20064;-86
2022/09/24 07:27:45;;;;;;;11.75;1.20;;;14.10;99.90;;;;;;4214155;28;20044;-85
2022/09/24 07:29:46;;;;;;;9.20;1.00;;;14.10;99.90;;;;;;4241985;27;20036;-84
2022/09/24 07:31:47;;;;;;;7.72;0.95;;;14.10;99.90;;;;;;4196839;28;20121;-84
2022/09/24 07:33:48;;;;;;;13.30;1.35;;;14.10;99.90;;;;;;4232413;28;20449;-84
2022/09/24 07:35:49;;;;;;;4.32;0.68;;;14.10;99.90;;;;;;4232186;28;20040;-84
2022/09/24 07:38:02;;;;;;;5.32;1.60;;;14.10;99.90;;;;;;4232126;28;20051;-84
2022/09/24 07:40:03;;;;;;;3.55;0.80;;;13.70;99.90;;;;;;4232321;28;20137;-84
2022/09/24 07:42:04;;;;;;;4.15;1.00;;;14.00;99.90;;;;;;4214013;28;20058;-84
2022/09/24 07:44:06;;;;;;;5.40;1.35;;;14.00;99.90;;;;;;4232182;28;20488;-83
2022/09/24 07:46:07;;;;;;;4.43;0.93;;;14.00;99.90;;;;;;4214053;28;20044;-84
2022/09/24 07:48:09;;;;;;;8.95;1.08;;;14.00;99.90;;;;;;4224646;28;20090;-84
2022/09/24 07:50:12;;;;;;;8.23;1.63;;;13.90;99.90;;;;;;4248629;27;20093;-85
2022/09/24 07:52:13;;;;;;;6.07;0.93;;;14.00;99.90;;;;;;4249231;27;20162;-84
2022/09/24 07:54:13;;;;;;;6.32;1.42;;;14.00;99.90;;;;;;4250025;27;20724;-84
2022/09/24 07:56:14;;;;;;;11.70;0.77;;;14.00;99.90;;;;;;4249890;27;20104;-83
2022/09/24 07:58:15;;;;;;;1.90;0.93;;;14.10;99.90;;;;;;4250058;27;20043;-85
2022/09/24 08:00:16;;;;;;;7.13;0.95;;;14.10;99.90;;;;;;4249629;27;20484;-84
2022/09/24 08:02:17;;;;;;;10.00;0.95;;;14.10;99.90;;;;;;4231761;28;20450;-84
2022/09/24 08:04:18;;;;;;;8.18;1.00;;;14.20;99.90;;;;;;4249887;27;20509;-83
2022/09/24 08:06:23;;;;;;;28.20;2.78;;;14.20;99.90;;;;;;4231353;28;20043;-84
2022/09/24 08:08:24;;;;;;;14.90;1.20;;;14.20;99.90;;;;;;4249869;27;20085;-84
2022/09/24 08:10:27;;;;;;;8.73;1.02;;;14.30;99.90;;;;;;4249639;27;20039;-84
2022/09/24 08:12:28;;;;;;;10.55;1.00;;;14.30;99.90;;;;;;4231429;28;20087;-83
2022/09/24 08:14:28;;;;;;;11.40;1.20;;;14.40;99.90;;;;;;4249435;27;20035;-83
2022/09/24 08:16:29;;;;;;;7.75;1.08;;;14.40;99.90;;;;;;4231385;28;20181;-84
2022/09/24 08:18:31;;;;;;;10.50;1.55;;;14.50;99.90;;;;;;4231171;28;20047;-83
2022/09/24 08:20:33;;;;;;;8.85;2.00;;;14.50;99.90;;;;;;4249407;27;20126;-84
2022/09/24 08:22:34;;;;;;;14.40;1.42;;;14.60;99.90;;;;;;4249667;27;20043;-84
2022/09/24 08:24:36;;;;;;;8.48;1.42;;;14.70;99.90;;;;;;4220534;28;20052;-86
2022/09/24 08:26:37;;;;;;;11.93;1.33;;;14.70;99.90;;;;;;4231877;28;20132;-85
2022/09/24 08:28:42;;;;;;;6.60;1.27;;;14.70;99.90;;;;;;4230991;28;20061;-87
2022/09/24 08:30:44;;;;;;;12.27;1.40;;;14.70;99.90;;;;;;4213943;28;20123;-84
2022/09/24 08:32:49;;;;;;;8.40;1.00;;;14.70;99.90;;;;;;4232085;28;20126;-84
2022/09/24 08:34:49;;;;;;;8.32;1.40;;;14.70;99.90;;;;;;4232063;28;20080;-85
2022/09/24 08:36:50;;;;;;;16.55;2.40;;;14.70;99.90;;;;;;4232311;28;20119;-84
2022/09/24 08:38:53;;;;;;;13.40;1.48;;;14.70;99.90;;;;;;4214339;28;20036;-84
2022/09/24 08:41:12;;;;;;;5.28;1.50;;;14.70;99.90;;;;;;4232105;28;20071;-84
2022/09/24 08:43:29;;;;;;;15.70;2.25;;;14.80;99.90;;;;;;4232057;28;20048;-84
2022/09/24 08:48:20;;;;;;;12.10;1.05;;;14.80;99.90;;;;;;4231654;28;20486;-84
2022/09/24 08:50:29;;;;;;;10.00;1.20;;;14.80;99.90;;;;;;4231693;28;20056;-84
2022/09/24 08:52:42;;;;;;;9.23;1.83;;;14.90;99.90;;;;;;4234007;28;20047;-84
2022/09/24 08:54:44;;;;;;;6.85;1.70;;;14.90;99.90;;;;;;4213634;28;20090;-84
2022/09/24 08:56:45;;;;;;;13.23;1.58;;;14.90;99.90;;;;;;4231920;28;20122;-84
2022/09/24 08:58:49;;;;;;;7.13;1.00;;;14.90;99.90;;;;;;4231375;28;20050;-85
2022/09/24 09:01:11;;;;;;;6.13;0.95;;;14.90;99.90;;;;;;4231941;28;20040;-85
2022/09/24 09:03:55;;;;;;;13.77;2.25;;;15.00;99.90;;;;;;4231498;28;20043;-84
2022/09/24 09:06:04;;;;;;;8.63;1.35;;;15.00;99.90;;;;;;4163043;28;20052;-85
2022/09/24 09:08:20;;;;;;;10.77;1.45;;;15.00;99.90;;;;;;4209173;28;20047;-85
2022/09/24 09:10:28;;;;;;;6.63;1.25;;;15.10;99.90;;;;;;4231826;28;20058;-85
2022/09/24 09:12:41;;;;;;;5.53;0.80;;;15.10;99.90;;;;;;4231198;28;20403;-84
2022/09/24 09:14:54;;;;;;;5.95;1.30;;;15.10;99.90;;;;;;4231255;28;20440;-85
2022/09/24 09:17:04;;;;;;;6.00;1.08;;;15.00;99.90;;;;;;4231663;28;20051;-85
2022/09/24 09:19:11;;;;;;;10.05;1.00;;;15.00;99.90;;;;;;4196791;28;20048;-85
2022/09/24 09:21:26;;;;;;;7.50;0.85;;;15.00;99.90;;;;;;4231507;28;20039;-84
2022/09/24 09:23:49;;;;;;;3.78;0.75;;;15.00;99.90;;;;;;4230991;28;20442;-84
2022/09/24 09:25:54;;;;;;;9.70;0.85;;;14.90;99.90;;;;;;4247334;27;20109;-84
2022/09/24 09:28:13;;;;;;;7.43;1.02;;;15.00;99.90;;;;;;4247601;27;20075;-84
2022/09/24 09:30:16;;;;;;;7.03;1.42;;;15.00;99.90;;;;;;4247630;27;20120;-84
2022/09/24 09:32:29;;;;;;;4.72;0.75;;;15.00;99.90;;;;;;4247032;27;20491;-85
2022/09/24 09:34:39;;;;;;;5.20;1.05;;;15.00;99.90;;;;;;4246777;27;20108;-85
2022/09/24 09:36:58;;;;;;;4.85;1.50;;;14.90;99.90;;;;;;4229215;28;20205;-85
2022/09/24 09:39:04;;;;;;;5.15;1.40;;;14.90;99.90;;;;;;4247409;27;20043;-85
2022/09/24 09:41:19;;;;;;;5.07;1.33;;;14.90;99.90;;;;;;4247326;27;20110;-84
2022/09/24 09:43:20;;;;;;;5.53;1.38;;;14.90;99.90;;;;;;4247036;27;20039;-84
2022/09/24 09:45:38;;;;;;;3.92;0.95;;;14.80;99.90;;;;;;4229067;28;20205;-84
2022/09/24 09:47:56;;;;;;;14.60;7.28;;;14.80;99.90;;;;;;4247279;27;20538;-84
2022/09/24 09:50:05;;;;;;;7.97;2.03;;;14.70;99.90;;;;;;4228784;28;20051;-84
2022/09/24 09:52:14;;;;;;;4.15;0.63;;;14.80;99.90;;;;;;4228956;28;20407;-84
2022/09/24 09:54:15;;;;;;;1.90;0.85;;;14.80;99.90;;;;;;4229913;28;20126;-84
2022/09/24 09:56:22;;;;;;;5.28;1.00;;;14.80;99.90;;;;;;4229675;28;20055;-84
2022/09/24 09:58:25;;;;;;;6.65;0.77;;;14.90;99.90;;;;;;4229951;28;20121;-84
2022/09/24 10:00:33;;;;;;;4.15;0.60;;;14.90;99.90;;;;;;4231138;28;20547;-84
2022/09/24 10:02:37;;;;;;;6.50;0.65;;;14.90;99.90;;;;;;4231326;28;20115;-84
2022/09/24 10:04:40;;;;;;;2.80;0.40;;;14.90;99.90;;;;;;4231097;28;20376;-84
2022/09/24 10:06:40;;;;;;;5.55;0.60;;;14.90;99.90;;;;;;4231077;28;20429;-84
2022/09/24 10:08:41;;;;;;;4.35;0.90;;;14.90;99.90;;;;;;4230796;28;20175;-84
2022/09/24 10:10:58;;;;;;;5.63;0.98;;;14.90;99.90;;;;;;4230905;28;20079;-84
2022/09/24 10:13:11;;;;;;;6.43;1.00;;;15.00;99.90;;;;;;4230987;28;20054;-84
2022/09/24 10:15:18;;;;;;;7.90;0.65;;;15.00;99.90;;;;;;4229538;28;20063;-84
2022/09/24 10:17:27;;;;;;;5.30;1.27;;;14.90;99.90;;;;;;4229301;28;20075;-84
2022/09/24 10:19:28;;;;;;;7.00;0.70;;;14.90;99.90;;;;;;4230875;28;20047;-85
2022/09/24 10:21:35;;;;;;;5.50;0.90;;;14.90;99.90;;;;;;4230950;28;20387;-84
2022/09/24 10:23:39;;;;;;;4.25;0.47;;;15.00;99.90;;;;;;4231005;28;20047;-84
2022/09/24 10:25:50;;;;;;;6.32;1.15;;;15.00;99.90;;;;;;4222100;28;20369;-84
2022/09/24 10:27:53;;;;;;;3.78;0.43;;;15.00;99.90;;;;;;4227233;28;20048;-84
2022/09/24 10:32:21;;;;;;;7.57;0.80;;;15.00;99.90;;;;;;4213521;28;20048;-85
2022/09/24 10:34:26;;;;;;;7.22;1.50;;;15.10;99.90;;;;;;4213274;28;20543;-85
2022/09/24 10:36:29;;;;;;;4.35;0.60;;;15.10;99.90;;;;;;4213718;28;20400;-85
2022/09/24 10:38:30;;;;;;;5.95;1.13;;;15.10;99.90;;;;;;4212010;28;20052;-85
2022/09/24 10:40:38;;;;;;;9.55;1.08;;;15.20;99.90;;;;;;4213744;28;20124;-85
2022/09/24 10:42:39;;;;;;;5.10;1.63;;;15.20;99.90;;;;;;4214136;28;20134;-85
2022/09/24 10:44:40;;;;;;;4.35;0.90;;;15.30;99.90;;;;;;4231914;28;20522;-85
2022/09/24 10:47:06;;;;;;;7.68;0.60;;;15.30;99.90;;;;;;4235199;27;20136;-85
2022/09/24 10:49:17;;;;;;;3.55;0.70;;;15.40;99.90;;;;;;4232397;28;20055;-85
2022/09/24 10:51:50;;;;;;;6.05;1.33;;;15.40;99.90;;;;;;4233713;28;20058;-84
2022/09/24 10:54:16;;;;;;;5.35;0.80;;;15.40;99.90;;;;;;4234078;28;20389;-85
2022/09/24 10:56:40;;;;;;;4.07;0.65;;;15.40;99.90;;;;;;4196712;28;20060;-85